Time;durP1;ratioP1;P1;durP2;ratioP2;P2;SDS_P1;SDS_P2;PMS_P1;PMS_P2;Temp;Humidity;BMP_temperature;BMP_pressure;BME280_temperature;BME280_humidity;BME280_pressure;Samples;Min_cycle;Max_cycle;Signal;HPM_P1;HPM_P2
2022/02/15 00:01:40;;;;;;;;;6.00;6.00;;;;;8.08;81.67;100638.47;5100342;27;45490;-79
2022/02/15 00:04:06;;;;;;;;;5.00;5.00;;;;;8.06;81.53;100639.63;5081660;27;47132;-80
2022/02/15 00:06:31;;;;;;;;;8.00;6.00;;;;;7.91;81.50;100618.25;5100188;27;45223;-79
2022/02/15 00:08:57;;;;;;;;;5.00;5.00;;;;;7.96;81.50;100640.59;5100644;27;45196;-79
2022/02/15 00:11:22;;;;;;;;;6.00;6.00;;;;;7.76;81.31;100613.56;5100228;27;45215;-79
2022/02/15 00:13:47;;;;;;;;;5.00;5.00;;;;;7.94;81.62;100650.50;5103123;27;45564;-80
2022/02/15 00:16:13;;;;;;;;;6.00;6.00;;;;;7.74;81.47;100626.09;5085529;27;45236;-79
2022/02/15 00:18:38;;;;;;;;;5.00;5.00;;;;;7.75;81.31;100622.47;5103648;27;45217;-79
2022/02/15 00:21:04;;;;;;;;;3.67;3.67;;;;;7.87;81.46;100643.38;5085518;27;46214;-79
2022/02/15 00:23:29;;;;;;;;;5.00;5.00;;;;;7.88;81.38;100652.97;5103855;27;46120;-79
2022/02/15 00:25:55;;;;;;;;;5.00;5.00;;;;;7.89;81.63;100658.09;5103623;27;45338;-79
2022/02/15 00:28:20;;;;;;;;;5.00;3.67;;;;;7.77;82.10;100638.19;5103724;27;45224;-79
2022/02/15 00:30:46;;;;;;;;;6.33;6.00;;;;;7.89;81.30;100647.50;5085197;27;46216;-79
2022/02/15 00:33:11;;;;;;;;;5.00;5.00;;;;;7.85;81.90;100645.34;5085122;27;47249;-79
2022/02/15 00:35:36;;;;;;;;;6.00;4.00;;;;;7.92;81.71;100651.66;5085024;27;46129;-79
2022/02/15 00:38:02;;;;;;;;;8.00;5.00;;;;;7.80;81.56;100638.72;5085061;27;45326;-79
2022/02/15 00:40:27;;;;;;;;;6.00;5.00;;;;;7.77;81.84;100639.03;5103500;27;45345;-79
2022/02/15 00:42:53;;;;;;;;;7.33;5.67;;;;;7.79;81.61;100639.72;5103519;27;46120;-79
2022/02/15 00:45:18;;;;;;;;;4.00;4.00;;;;;7.79;81.80;100641.50;5084991;27;45439;-79
2022/02/15 00:47:43;;;;;;;;;5.00;3.33;;;;;7.78;81.67;100645.97;5085328;27;45260;-80
2022/02/15 00:50:10;;;;;;;;;6.33;4.00;;;;;7.94;81.33;100668.22;5103128;27;45416;-79
2022/02/15 00:52:35;;;;;;;;;3.67;3.67;;;;;7.87;81.90;100656.59;5085041;27;48235;-79
2022/02/15 00:55:01;;;;;;;;;4.00;4.00;;;;;7.88;81.47;100674.97;5084708;27;45978;-79
2022/02/15 00:57:26;;;;;;;;;6.00;4.67;;;;;7.89;81.30;100676.63;5103381;27;45314;-79
2022/02/15 00:59:52;;;;;;;;;5.00;4.00;;;;;7.74;81.48;100665.78;5103499;27;45358;-78
2022/02/15 01:02:17;;;;;;;;;3.33;3.33;;;;;7.81;81.45;100684.50;5084693;27;47272;-79
2022/02/15 01:04:42;;;;;;;;;5.00;5.00;;;;;7.70;82.00;100672.38;5103114;27;45239;-79
2022/02/15 01:07:08;;;;;;;;;5.67;5.67;;;;;7.71;81.50;100676.69;5103305;27;45251;-79
2022/02/15 01:09:33;;;;;;;;;7.00;5.00;;;;;7.70;82.23;100681.13;5103094;27;45325;-79
2022/02/15 01:11:59;;;;;;;;;4.00;4.00;;;;;7.71;81.70;100695.22;5103041;27;45421;-79
2022/02/15 01:14:25;;;;;;;;;6.00;4.00;;;;;7.73;81.80;100697.69;5101598;27;45278;-79
2022/02/15 01:16:50;;;;;;;;;5.33;5.00;;;;;7.74;81.77;100702.00;5103093;27;45371;-79
2022/02/15 01:19:15;;;;;;;;;4.67;4.67;;;;;7.65;81.71;100695.81;5102515;27;45365;-79
2022/02/15 01:21:41;;;;;;;;;7.00;5.00;;;;;7.51;81.67;100681.38;5102881;27;46092;-79
2022/02/15 01:24:06;;;;;;;;;2.67;2.67;;;;;7.73;81.79;100713.56;5102689;27;45311;-79
2022/02/15 01:26:32;;;;;;;;;3.67;3.67;;;;;7.64;81.62;100702.97;5102870;27;45275;-78
2022/02/15 01:28:57;;;;;;;;;4.67;4.67;;;;;7.60;81.88;100701.59;5084339;27;46755;-78
2022/02/15 01:31:22;;;;;;;;;5.00;3.33;;;;;7.48;81.38;100692.25;5102680;27;45441;-79
2022/02/15 01:33:49;;;;;;;;;5.00;5.00;;;;;7.53;82.07;100725.19;5102428;27;45342;-78
2022/02/15 01:36:14;;;;;;;;;3.00;3.00;;;;;7.54;81.37;100720.75;5084225;27;45433;-79
2022/02/15 01:38:40;;;;;;;;;4.00;3.00;;;;;7.53;81.50;100717.25;5102476;27;45283;-79
2022/02/15 01:41:08;;;;;;;;;4.00;4.00;;;;;7.50;82.10;100724.66;5102395;27;46576;-79
2022/02/15 01:43:42;;;;;;;;;5.00;5.00;;;;;7.42;81.92;100712.19;5102539;27;45238;-79
2022/02/15 01:46:08;;;;;;;;;6.00;6.00;;;;;7.54;82.11;100736.59;5084305;27;45298;-79
2022/02/15 01:48:35;;;;;;;;;6.00;5.00;;;;;7.56;82.10;100739.91;5083751;27;46190;-78
2022/02/15 01:51:04;;;;;;;;;5.00;3.00;;;;;7.52;81.72;100730.63;5083824;27;47166;-79
2022/02/15 01:53:30;;;;;;;;;5.00;5.00;;;;;7.50;81.99;100722.00;5102340;27;45452;-79
2022/02/15 01:55:56;;;;;;;;;4.00;4.00;;;;;7.56;81.89;100743.41;5102223;27;45308;-79
2022/02/15 01:58:22;;;;;;;;;5.67;3.00;;;;;7.54;82.13;100737.41;5083745;27;45893;-79
2022/02/15 02:00:47;;;;;;;;;6.00;6.00;;;;;7.44;81.57;100732.25;5083806;27;48089;-79
2022/02/15 02:03:12;;;;;;;;;5.00;5.00;;;;;7.35;81.49;100719.94;5102258;27;45224;-78
2022/02/15 02:05:50;;;;;;;;;3.33;3.33;;;;;7.34;81.66;100720.91;5102190;27;45699;-78
2022/02/15 02:08:17;;;;;;;;;5.33;4.33;;;;;7.50;82.24;100761.69;5102182;27;45436;-79
2022/02/15 02:10:43;;;;;;;;;5.00;3.00;;;;;7.42;82.18;100738.63;5083415;27;47202;-79
2022/02/15 02:13:09;;;;;;;;;9.00;6.00;;;;;7.47;82.01;100746.97;5083555;27;45358;-79
2022/02/15 02:15:35;;;;;;;;;6.00;5.33;;;;;7.53;81.84;100756.09;5083636;27;45322;-79
2022/02/15 02:18:00;;;;;;;;;3.00;3.00;;;;;7.49;81.70;100760.03;5101754;27;45280;-78
2022/02/15 02:20:26;;;;;;;;;6.00;5.33;;;;;7.51;81.71;100768.66;5083325;27;47379;-79
2022/02/15 02:22:51;;;;;;;;;5.33;4.00;;;;;7.41;82.14;100748.41;5102021;27;45253;-79
2022/02/15 02:25:18;;;;;;;;;3.67;3.67;;;;;7.37;81.75;100751.50;5083570;27;45395;-79
2022/02/15 02:27:44;;;;;;;;;4.67;4.67;;;;;7.32;82.09;100758.09;5101924;27;45597;-79
2022/02/15 02:30:11;;;;;;;;;5.33;4.00;;;;;7.49;81.97;100775.91;5101639;27;45463;-78
2022/02/15 02:32:37;;;;;;;;;4.00;4.00;;;;;7.50;82.25;100774.91;5101813;27;45440;-78
2022/02/15 02:35:05;;;;;;;;;4.67;4.00;;;;;7.52;82.47;100770.31;5082494;27;45338;-79
2022/02/15 02:37:31;;;;;;;;;5.67;5.67;;;;;7.55;81.87;100772.66;5086929;27;45531;-79
2022/02/15 02:39:56;;;;;;;;;5.67;4.67;;;;;7.56;82.17;100775.13;5080917;28;45267;-79
2022/02/15 02:42:26;;;;;;;;;3.00;3.00;;;;;7.60;81.92;100788.06;5062661;28;45264;-78
2022/02/15 02:44:56;;;;;;;;;5.33;4.00;;;;;7.60;82.23;100794.16;5063102;28;45357;-79
2022/02/15 02:47:22;;;;;;;;;6.67;5.00;;;;;7.56;82.04;100783.06;5080920;28;45141;-79
2022/02/15 02:49:48;;;;;;;;;6.00;5.67;;;;;7.52;82.38;100765.00;5062568;28;46998;-78
2022/02/15 02:52:13;;;;;;;;;3.33;3.33;;;;;7.51;82.26;100774.75;5062736;28;45619;-78
2022/02/15 02:54:40;;;;;;;;;4.00;3.00;;;;;7.62;82.18;100799.31;5081058;28;45291;-79
2022/02/15 02:57:06;;;;;;;;;5.00;4.00;;;;;7.50;82.22;100791.63;5080934;28;45315;-78
2022/02/15 02:59:33;;;;;;;;;5.33;3.00;;;;;7.63;82.53;100811.56;5080670;28;45366;-79
2022/02/15 03:01:58;;;;;;;;;5.67;4.00;;;;;7.52;82.01;100802.03;5062445;28;45440;-78
2022/02/15 03:04:24;;;;;;;;;5.00;3.67;;;;;7.59;82.27;100811.03;5080841;28;45230;-79
2022/02/15 03:06:50;;;;;;;;;2.33;2.33;;;;;7.58;82.17;100810.19;5080785;28;45482;-78
2022/02/15 03:09:16;;;;;;;;;4.33;3.67;;;;;7.54;82.11;100806.19;5062054;28;47040;-79
2022/02/15 03:11:41;;;;;;;;;3.00;2.67;;;;;7.62;81.90;100818.66;5080690;28;45684;-79
2022/02/15 03:14:07;;;;;;;;;3.33;2.33;;;;;7.68;81.88;100828.63;5080903;28;45422;-79
2022/02/15 03:16:33;;;;;;;;;4.00;4.00;;;;;7.69;82.18;100832.94;5080591;28;45448;-79
2022/02/15 03:18:59;;;;;;;;;3.00;3.00;;;;;7.72;81.95;100837.09;5061783;28;47580;-78
2022/02/15 03:21:24;;;;;;;;;3.33;3.00;;;;;7.51;81.55;100806.50;5062359;28;45305;-78
2022/02/15 03:23:50;;;;;;;;;3.00;3.00;;;;;7.62;82.09;100831.88;5080736;28;45489;-79
2022/02/15 03:26:15;;;;;;;;;4.33;3.67;;;;;7.72;81.83;100850.31;5061801;28;46486;-79
2022/02/15 03:28:41;;;;;;;;;3.00;3.00;;;;;7.65;82.04;100836.03;5080355;28;46271;-79
2022/02/15 03:31:07;;;;;;;;;3.00;3.00;;;;;7.73;81.66;100852.00;5080380;28;45447;-78
2022/02/15 03:33:33;;;;;;;;;4.67;2.33;;;;;7.77;81.86;100857.78;5080365;28;45329;-78
2022/02/15 03:35:59;;;;;;;;;3.33;3.00;;;;;7.72;81.72;100854.78;5081455;27;45278;-79
2022/02/15 03:38:25;;;;;;;;;5.00;4.33;;;;;7.55;81.85;100836.94;5082393;27;48233;-79
2022/02/15 03:43:34;;;;;;;;;4.67;3.00;;;;;7.66;81.73;100872.91;5100959;27;45341;-79
2022/02/15 03:45:59;;;;;;;;;2.33;2.33;;;;;7.69;81.92;100875.25;5100495;27;45400;-79
2022/02/15 03:48:25;;;;;;;;;3.33;2.67;;;;;7.76;81.62;100882.59;5081016;27;48571;-78
2022/02/15 03:50:50;;;;;;;;;4.33;3.00;;;;;7.66;81.51;100870.28;5100587;27;45278;-79
2022/02/15 03:53:16;;;;;;;;;5.00;2.00;;;;;7.72;81.88;100886.53;5082141;27;45300;-78
2022/02/15 03:55:42;;;;;;;;;2.67;2.67;;;;;7.56;81.35;100866.88;5100501;27;45259;-79
2022/02/15 03:58:08;;;;;;;;;4.00;4.00;;;;;7.69;81.63;100899.06;5100295;27;46120;-79
2022/02/15 04:00:34;;;;;;;;;3.67;3.67;;;;;7.63;81.22;100907.63;5100478;27;45313;-79
2022/02/15 04:02:59;;;;;;;;;2.67;2.33;;;;;7.53;81.37;100907.69;5082278;27;45206;-79
2022/02/15 04:05:24;;;;;;;;;3.67;3.67;;;;;7.43;81.13;100899.00;5100223;27;45200;-78
2022/02/15 04:07:50;;;;;;;;;3.00;3.00;;;;;7.51;81.60;100916.75;5082200;27;47955;-79
2022/02/15 04:10:17;;;;;;;;;3.00;2.00;;;;;7.51;81.49;100925.50;5100386;27;45330;-79
2022/02/15 04:12:43;;;;;;;;;4.33;2.00;;;;;7.61;81.16;100943.13;5100496;27;45386;-78
2022/02/15 04:15:09;;;;;;;;;3.33;3.33;;;;;7.56;81.33;100930.34;5100248;27;45453;-78
2022/02/15 04:17:34;;;;;;;;;2.67;2.00;;;;;7.49;81.40;100919.56;5099857;27;46443;-78
2022/02/15 04:20:00;;;;;;;;;2.00;2.00;;;;;7.59;81.64;100948.56;5100038;27;45247;-78
2022/02/15 04:22:25;;;;;;;;;1.67;1.67;;;;;7.55;81.42;100936.63;5081921;27;45264;-78
2022/02/15 04:24:51;;;;;;;;;4.00;2.00;;;;;7.55;80.97;100945.38;5100063;27;45231;-79
2022/02/15 04:27:16;;;;;;;;;2.67;2.67;;;;;7.52;81.47;100952.81;5100062;27;45309;-79
2022/02/15 04:29:42;;;;;;;;;1.67;1.67;;;;;7.42;81.36;100945.75;5081758;27;45257;-79
2022/02/15 04:32:07;;;;;;;;;2.33;2.33;;;;;7.36;81.13;100945.53;5100444;27;45355;-79
2022/02/15 04:34:33;;;;;;;;;2.00;2.00;;;;;7.28;81.08;100943.63;5081543;27;46473;-78
2022/02/15 04:36:58;;;;;;;;;2.00;2.00;;;;;7.16;81.49;100932.41;5081242;27;48058;-79
2022/02/15 04:39:24;;;;;;;;;3.00;3.00;;;;;7.09;81.22;100942.72;5081589;27;45262;-79
2022/02/15 04:41:49;;;;;;;;;1.33;1.33;;;;;7.09;81.42;100952.47;5081601;27;45485;-80
2022/02/15 04:44:14;;;;;;;;;2.00;2.00;;;;;7.06;81.15;100954.44;5099910;27;45503;-79
2022/02/15 04:46:40;;;;;;;;;2.67;2.67;;;;;7.06;81.37;100959.72;5081442;27;48433;-79
2022/02/15 04:49:05;;;;;;;;;1.33;1.33;;;;;7.11;81.65;100982.22;5081367;27;45297;-78
2022/02/15 04:51:30;;;;;;;;;4.33;3.00;;;;;7.10;81.48;100983.22;5100029;27;45317;-78
2022/02/15 04:53:56;;;;;;;;;2.00;2.00;;;;;7.02;81.49;100976.00;5081411;27;45889;-78
2022/02/15 04:56:21;;;;;;;;;3.67;2.67;;;;;6.91;81.36;100977.00;5099592;27;46683;-78
2022/02/15 04:58:46;;;;;;;;;3.67;2.33;;;;;6.89;81.74;100993.00;5101183;27;45341;-79
2022/02/15 05:01:14;;;;;;;;;2.33;2.33;;;;;6.80;81.48;100980.69;5084992;27;45342;-79
2022/02/15 05:03:40;;;;;;;;;2.00;2.00;;;;;6.75;81.56;100975.81;5103203;27;45315;-79
2022/02/15 05:06:05;;;;;;;;;3.00;2.67;;;;;6.84;81.65;100989.97;5103019;27;45719;-79
2022/02/15 05:08:31;;;;;;;;;3.00;3.00;;;;;6.90;81.42;101005.25;5084749;27;45244;-79
2022/02/15 05:10:56;;;;;;;;;3.00;1.33;;;;;6.81;81.13;101004.31;5103240;27;45293;-78
2022/02/15 05:13:21;;;;;;;;;3.67;2.00;;;;;6.77;81.86;101002.91;5084686;27;46283;-79
2022/02/15 05:15:47;;;;;;;;;2.00;2.00;;;;;6.79;81.81;101014.19;5084586;27;48437;-78
2022/02/15 05:18:12;;;;;;;;;1.00;1.00;;;;;6.63;81.56;100984.88;5102543;27;45297;-80
2022/02/15 05:20:38;;;;;;;;;2.00;2.00;;;;;6.70;81.50;100999.16;5103113;27;45149;-80
2022/02/15 05:23:03;;;;;;;;;1.33;1.33;;;;;6.74;81.44;101012.94;5102913;27;45403;-79
2022/02/15 05:25:29;;;;;;;;;5.67;5.67;;;;;6.72;82.11;101007.81;5102730;27;45401;-79
2022/02/15 05:27:57;;;;;;;;;2.67;2.67;;;;;6.58;82.07;101009.06;5084208;27;45250;-79
2022/02/15 05:30:23;;;;;;;;;5.33;3.00;;;;;6.61;81.53;101015.91;5105043;27;45301;-79
2022/02/15 05:32:48;;;;;;;;;4.00;1.33;;;;;6.56;81.90;101011.84;5084411;27;45941;-77
2022/02/15 05:35:14;;;;;;;;;3.00;2.00;;;;;6.47;81.67;101010.06;5084058;27;47531;-78
2022/02/15 05:37:39;;;;;;;;;2.00;2.00;;;;;6.47;82.28;101019.78;5086809;27;45301;-78
2022/02/15 05:40:06;;;;;;;;;2.00;2.00;;;;;6.50;81.98;101024.78;5082344;28;45384;-78
2022/02/15 05:42:32;;;;;;;;;0.67;0.67;;;;;6.44;81.68;101021.72;5081813;28;45543;-78
2022/02/15 05:44:57;;;;;;;;;1.00;1.00;;;;;6.29;82.10;101012.56;5063792;28;46213;-78
2022/02/15 05:47:23;;;;;;;;;1.00;1.00;;;;;6.17;81.96;101001.31;5082015;28;45226;-78
2022/02/15 05:52:32;;;;;;;;;1.67;1.67;;;;;6.24;82.41;101013.00;5081936;28;45403;-77
2022/02/15 05:54:58;;;;;;;;;4.67;2.33;;;;;6.33;82.10;101029.81;5081749;28;46370;-77
2022/02/15 05:57:23;;;;;;;;;3.67;3.67;;;;;6.21;82.60;101010.63;5081915;28;45297;-78
2022/02/15 05:59:48;;;;;;;;;4.33;1.67;;;;;6.27;82.52;101022.44;5082005;28;45219;-77
2022/02/15 06:02:14;;;;;;;;;2.67;2.00;;;;;6.17;82.46;101010.06;5082057;28;45604;-77
2022/02/15 06:04:39;;;;;;;;;2.67;1.33;;;;;6.22;82.36;101022.84;5063164;28;47139;-77
2022/02/15 06:07:07;;;;;;;;;5.00;3.00;;;;;6.16;82.53;101020.75;5081847;28;45221;-77
2022/02/15 06:09:32;;;;;;;;;2.00;2.00;;;;;6.21;82.31;101038.81;5081303;28;45312;-78
2022/02/15 06:11:58;;;;;;;;;2.33;1.33;;;;;6.25;82.48;101051.59;5079548;28;46131;-77
2022/02/15 06:14:24;;;;;;;;;6.67;1.00;;;;;6.13;82.77;101035.06;5081674;28;45934;-78
2022/02/15 06:16:49;;;;;;;;;3.67;2.33;;;;;6.02;82.74;101014.06;5081507;28;45366;-77
2022/02/15 06:19:14;;;;;;;;;4.00;3.67;;;;;6.08;82.44;101032.03;5081202;28;45300;-77
2022/02/15 06:21:39;;;;;;;;;4.00;2.00;;;;;6.09;82.66;101041.59;5063231;28;47011;-78
2022/02/15 06:24:05;;;;;;;;;3.00;3.00;;;;;6.12;82.75;101070.34;5081353;28;45295;-77
2022/02/15 06:26:31;;;;;;;;;3.67;2.00;;;;;5.99;82.33;101051.28;5063182;28;45226;-77
2022/02/15 06:28:58;;;;;;;;;1.00;1.00;;;;;6.00;82.35;101052.94;5063162;28;45266;-78
2022/02/15 06:31:23;;;;;;;;;3.00;2.00;;;;;6.04;82.68;101065.75;5081457;28;45255;-78
2022/02/15 06:33:48;;;;;;;;;4.00;4.00;;;;;5.95;82.40;101061.25;5062765;28;48419;-78
2022/02/15 06:36:14;;;;;;;;;4.00;3.00;;;;;5.98;82.66;101073.34;5066506;27;45268;-77
2022/02/15 06:38:39;;;;;;;;;1.67;0.67;;;;;5.96;82.50;101070.00;5083650;27;45266;-78
2022/02/15 06:41:04;;;;;;;;;3.33;3.33;;;;;5.86;82.82;101057.63;5083304;27;46926;-78
2022/02/15 06:43:30;;;;;;;;;3.33;3.33;;;;;5.89;82.33;101070.53;5101641;27;45396;-77
2022/02/15 06:45:55;;;;;;;;;2.00;2.00;;;;;5.86;82.46;101086.66;5083389;27;45606;-77
2022/02/15 06:48:21;;;;;;;;;4.00;4.00;;;;;5.82;82.36;101093.16;5101599;27;45380;-77
2022/02/15 06:50:46;;;;;;;;;3.33;3.33;;;;;5.65;82.19;101077.00;5101687;27;45362;-77
2022/02/15 06:53:11;;;;;;;;;3.00;3.00;;;;;5.74;82.12;101100.91;5101436;27;45462;-78
2022/02/15 06:55:37;;;;;;;;;5.00;4.67;;;;;5.58;82.40;101093.47;5082823;27;45648;-77
2022/02/15 06:58:02;;;;;;;;;4.67;4.67;;;;;5.61;82.37;101104.63;5083064;27;45774;-77
2022/02/15 07:00:27;;;;;;;;;7.67;6.00;;;;;5.51;82.31;101104.56;5101310;27;45292;-77
2022/02/15 07:02:53;;;;;;;;;5.00;5.00;;;;;5.52;82.38;101116.78;5082916;27;46968;-77
2022/02/15 07:05:18;;;;;;;;;6.00;6.00;;;;;5.48;82.46;101125.09;5101061;27;45342;-78
2022/02/15 07:07:45;;;;;;;;;16.00;16.00;;;;;5.50;82.72;101136.31;5101513;27;45261;-78
2022/02/15 07:10:12;;;;;;;;;27.00;24.75;;;;;5.44;82.42;101127.16;5082776;27;46232;-78
2022/02/15 07:12:38;;;;;;;;;16.33;15.67;;;;;5.33;83.09;101119.31;5101048;27;45266;-78
2022/02/15 07:15:04;;;;;;;;;11.00;11.00;;;;;5.38;82.82;101136.41;5101091;27;45282;-78
2022/02/15 07:17:34;;;;;;;;;9.33;9.33;;;;;5.37;83.14;101134.75;5100885;27;45442;-77
2022/02/15 07:20:00;;;;;;;;;7.33;7.33;;;;;5.34;83.11;101128.91;5082234;27;45471;-78
2022/02/15 07:22:25;;;;;;;;;10.67;10.33;;;;;5.39;83.41;101140.72;5082282;27;48398;-78
2022/02/15 07:24:50;;;;;;;;;8.33;8.33;;;;;5.35;83.41;101139.31;5100941;27;45343;-78
2022/02/15 07:27:16;;;;;;;;;11.33;10.00;;;;;5.41;83.40;101136.16;5082533;27;45240;-78
2022/02/15 07:29:41;;;;;;;;;13.00;12.00;;;;;5.29;83.39;101116.94;5082401;27;46463;-78
2022/02/15 07:32:07;;;;;;;;;12.00;11.33;;;;;5.47;83.65;101140.06;5100812;27;45997;-78
2022/02/15 07:34:32;;;;;;;;;16.00;12.33;;;;;5.46;83.57;101130.50;5082109;27;45386;-78
2022/02/15 07:36:57;;;;;;;;;17.67;15.33;;;;;5.50;83.80;101138.97;5100604;27;45326;-78
2022/02/15 07:39:23;;;;;;;;;14.33;14.33;;;;;5.65;83.66;101148.22;5100619;27;45267;-78
2022/02/15 07:41:49;;;;;;;;;12.33;9.33;;;;;5.65;83.79;101136.81;5100777;27;46497;-78
2022/02/15 07:44:15;;;;;;;;;7.33;7.33;;;;;5.72;83.81;101152.97;5100739;27;45225;-77
2022/02/15 07:46:40;;;;;;;;;5.33;4.33;;;;;5.68;84.11;101144.47;5082235;27;45560;-78
2022/02/15 07:49:05;;;;;;;;;5.67;5.00;;;;;5.73;83.46;101150.19;5100299;27;45256;-78
2022/02/15 07:51:31;;;;;;;;;11.33;11.00;;;;;5.77;83.17;101159.50;5100598;27;45360;-78
2022/02/15 07:53:56;;;;;;;;;11.33;9.33;;;;;5.67;83.61;101145.44;5100556;27;45320;-78
2022/02/15 07:56:21;;;;;;;;;7.67;7.00;;;;;5.81;83.54;101160.09;5081926;27;45298;-78
2022/02/15 07:58:47;;;;;;;;;8.33;6.67;;;;;5.76;83.07;101143.81;5082186;27;45998;-77
2022/02/15 08:01:12;;;;;;;;;5.33;4.33;;;;;5.76;83.60;101149.09;5082048;27;48169;-78
2022/02/15 08:03:38;;;;;;;;;5.00;5.00;;;;;5.66;83.85;101139.31;5081915;27;45276;-78
2022/02/15 08:06:04;;;;;;;;;7.00;4.67;;;;;5.72;83.46;101152.97;5099330;27;45439;-77
2022/02/15 08:08:29;;;;;;;;;4.67;4.67;;;;;5.78;83.18;101163.00;5100297;27;45617;-78
2022/02/15 08:10:56;;;;;;;;;8.00;8.00;;;;;5.71;83.43;101152.13;5100284;27;46387;-77
2022/02/15 08:13:22;;;;;;;;;9.67;9.00;;;;;5.83;83.08;101173.97;5081985;27;45334;-77
2022/02/15 08:15:49;;;;;;;;;6.00;6.00;;;;;5.73;83.28;101152.84;5081916;27;45286;-78
2022/02/15 08:18:15;;;;;;;;;8.33;7.67;;;;;5.87;83.54;101172.72;5090538;27;45442;-78
2022/02/15 08:20:41;;;;;;;;;9.00;6.00;;;;;5.67;83.37;101143.66;5079622;28;46356;-78
2022/02/15 08:23:08;;;;;;;;;8.33;6.00;;;;;5.89;83.14;101178.72;5079756;28;45395;-78
2022/02/15 08:25:34;;;;;;;;;6.00;5.67;;;;;5.77;83.13;101164.78;5061458;28;45324;-77
2022/02/15 08:28:01;;;;;;;;;6.00;6.00;;;;;5.84;83.28;101183.56;5079411;28;45321;-77
2022/02/15 08:30:26;;;;;;;;;6.00;6.00;;;;;5.50;83.32;101129.25;5079465;28;45602;-78
2022/02/15 08:32:52;;;;;;;;;6.00;6.00;;;;;5.67;83.38;101161.25;5061259;28;45638;-78
2022/02/15 08:35:19;;;;;;;;;7.00;5.67;;;;;5.72;83.37;101172.25;5083193;28;45225;-78
2022/02/15 08:37:44;;;;;;;;;8.00;5.67;;;;;5.92;83.17;101204.84;5081009;27;46521;-77
2022/02/15 08:40:12;;;;;;;;;7.00;6.67;;;;;5.98;83.17;101206.09;5085101;27;46999;-77
2022/02/15 08:42:38;;;;;;;;;4.67;4.67;;;;;6.02;83.15;101214.59;5103607;27;45831;-78
2022/02/15 08:45:06;;;;;;;;;6.00;5.67;;;;;5.94;83.44;101205.56;5085273;27;45365;-78
2022/02/15 08:47:32;;;;;;;;;5.33;4.33;;;;;6.04;83.17;101221.44;5103485;27;45293;-77
2022/02/15 08:49:57;;;;;;;;;5.67;5.67;;;;;6.10;83.12;101227.19;5103259;27;45647;-78
2022/02/15 08:52:24;;;;;;;;;5.00;5.00;;;;;6.10;83.01;101229.81;5085000;27;45307;-78
2022/02/15 08:54:51;;;;;;;;;5.33;5.00;;;;;6.15;83.08;101236.38;5085095;27;45476;-78
2022/02/15 08:57:16;;;;;;;;;5.00;4.33;;;;;6.10;82.89;101203.44;5084671;27;47163;-78
2022/02/15 08:59:43;;;;;;;;;6.00;5.00;;;;;6.27;82.74;101228.34;5084667;27;48009;-78
2022/02/15 09:02:08;;;;;;;;;6.67;6.00;;;;;6.18;82.46;101215.00;5103433;27;45361;-78
2022/02/15 09:04:35;;;;;;;;;7.00;5.33;;;;;6.28;82.93;101230.84;5084801;27;45444;-77
2022/02/15 09:07:01;;;;;;;;;7.33;6.00;;;;;6.35;82.93;101230.31;5103246;27;45185;-78
2022/02/15 09:09:26;;;;;;;;;6.00;6.00;;;;;6.26;82.69;101203.72;5102988;27;45235;-77
2022/02/15 09:11:52;;;;;;;;;8.33;5.00;;;;;6.34;82.35;101202.25;5103110;27;45285;-78
2022/02/15 09:14:17;;;;;;;;;4.00;4.00;;;;;6.39;82.36;101200.88;5103323;27;45337;-78
2022/02/15 09:16:42;;;;;;;;;5.67;4.67;;;;;6.18;82.51;101164.84;5103101;27;45205;-77
2022/02/15 09:19:08;;;;;;;;;6.33;6.33;;;;;6.54;82.47;101216.31;5084146;27;47154;-78
2022/02/15 09:21:34;;;;;;;;;4.33;4.00;;;;;6.46;81.98;101193.22;5103094;27;45274;-78
2022/02/15 09:24:00;;;;;;;;;4.33;4.00;;;;;6.65;81.91;101212.75;5084686;27;45242;-78
2022/02/15 09:26:26;;;;;;;;;3.00;3.00;;;;;6.62;82.12;101181.31;5084291;27;47265;-78
2022/02/15 09:28:52;;;;;;;;;4.00;4.00;;;;;6.57;81.78;101168.50;5084308;27;48228;-78
2022/02/15 09:31:17;;;;;;;;;5.67;5.67;;;;;6.71;81.95;101184.94;5102923;27;45350;-78
2022/02/15 09:33:43;;;;;;;;;7.00;5.00;;;;;6.79;81.49;101193.00;5084309;27;45236;-78
2022/02/15 09:36:09;;;;;;;;;6.33;6.33;;;;;6.76;81.79;101182.72;5083915;27;46973;-78
2022/02/15 09:38:34;;;;;;;;;7.00;6.00;;;;;6.75;82.00;101189.81;5102727;27;45386;-77
2022/02/15 09:41:06;;;;;;;;;5.33;5.33;;;;;6.87;81.93;101193.16;5102689;27;45362;-77
2022/02/15 09:43:35;;;;;;;;;6.33;6.33;;;;;6.90;81.60;101181.47;5101364;27;45353;-78
2022/02/15 09:46:01;;;;;;;;;5.00;5.00;;;;;7.05;81.32;101203.88;5099745;27;47275;-77
2022/02/15 09:48:28;;;;;;;;;6.00;5.00;;;;;6.99;81.46;101195.66;5102211;27;45220;-78
2022/02/15 09:50:54;;;;;;;;;5.00;5.00;;;;;7.01;81.38;101196.34;5084205;27;45273;-78
2022/02/15 09:53:19;;;;;;;;;8.00;6.33;;;;;7.03;81.05;101184.66;5083943;27;45253;-78
2022/02/15 09:55:45;;;;;;;;;6.00;5.33;;;;;6.75;80.86;101138.75;5102285;27;45219;-78
2022/02/15 09:58:10;;;;;;;;;7.00;6.00;;;;;7.18;80.61;101198.28;5083796;27;47554;-77
2022/02/15 10:00:35;;;;;;;;;6.00;5.00;;;;;7.36;80.10;101218.72;5102266;27;45426;-77
2022/02/15 10:03:02;;;;;;;;;4.00;4.00;;;;;7.39;80.20;101215.78;5083847;27;45327;-77
2022/02/15 10:05:34;;;;;;;;;5.67;5.67;;;;;7.50;80.03;101229.84;5083877;27;47050;-77
2022/02/15 10:08:00;;;;;;;;;5.00;5.00;;;;;7.35;80.20;101198.53;5102331;27;46358;-76
2022/02/15 10:10:35;;;;;;;;;7.00;5.00;;;;;7.58;79.60;101222.03;5083698;27;45303;-77
2022/02/15 10:13:06;;;;;;;;;5.00;4.67;;;;;7.75;79.68;101228.38;5100960;27;45299;-77
2022/02/15 10:15:34;;;;;;;;;7.00;6.33;;;;;7.79;80.00;101210.41;5102113;27;45282;-77
2022/02/15 10:18:07;;;;;;;;;6.00;5.00;;;;;7.96;78.65;101224.69;5075982;28;47874;-78
2022/02/15 10:20:33;;;;;;;;;7.00;6.33;;;;;8.05;79.59;101231.78;5081369;28;45268;-77
2022/02/15 10:23:25;;;;;;;;;5.33;3.67;;;;;8.12;78.73;101232.03;5063466;28;45237;-77
2022/02/15 10:25:52;;;;;;;;;5.67;5.00;;;;;8.05;78.24;101221.19;5081337;28;45487;-78
2022/02/15 10:28:19;;;;;;;;;6.00;4.67;;;;;8.00;78.82;101199.63;5081020;28;45264;-77
2022/02/15 10:30:52;;;;;;;;;5.00;3.33;;;;;8.19;78.76;101227.81;5081395;28;45173;-77
2022/02/15 10:33:20;;;;;;;;;4.33;4.00;;;;;8.12;78.87;101208.22;5062624;28;45299;-78
2022/02/15 10:35:59;;;;;;;;;3.00;3.00;;;;;8.38;78.19;101227.88;5081228;28;45245;-78
2022/02/15 10:38:33;;;;;;;;;2.33;2.33;;;;;8.47;78.72;101219.03;5081190;28;45984;-77
2022/02/15 10:41:15;;;;;;;;;5.00;4.33;;;;;8.73;77.99;101226.28;5081108;28;45382;-77
2022/02/15 10:44:00;;;;;;;;;6.00;5.00;;;;;8.87;77.54;101238.22;5081450;28;45292;-77
2022/02/15 10:46:29;;;;;;;;;5.67;4.67;;;;;8.76;77.23;101198.66;5062441;28;46557;-77
2022/02/15 10:48:56;;;;;;;;;3.00;3.00;;;;;8.95;77.29;101213.59;5062488;28;47052;-78
2022/02/15 10:51:23;;;;;;;;;5.00;4.67;;;;;9.00;76.52;101229.03;5081027;28;45250;-77
2022/02/15 10:53:49;;;;;;;;;6.00;4.00;;;;;8.98;76.16;101226.53;5062929;28;45248;-78
2022/02/15 10:56:15;;;;;;;;;4.67;3.67;;;;;8.98;76.12;101221.22;5080141;28;45292;-77
2022/02/15 10:58:40;;;;;;;;;3.00;3.00;;;;;8.99;76.61;101207.00;5081022;28;45375;-77
2022/02/15 11:01:10;;;;;;;;;4.00;3.00;;;;;8.84;75.71;101178.34;5080924;28;45240;-77
2022/02/15 11:03:37;;;;;;;;;1.33;1.00;;;;;9.08;76.33;101198.13;5080933;28;45316;-78
2022/02/15 11:06:04;;;;;;;;;3.00;2.67;;;;;9.16;76.37;101194.69;5080881;28;45453;-77
2022/02/15 11:08:32;;;;;;;;;5.67;5.67;;;;;9.16;75.75;101184.09;5062459;28;48369;-77
2022/02/15 11:11:06;;;;;;;;;5.00;4.33;;;;;9.31;76.38;101199.47;5080690;28;45392;-77
2022/02/15 11:13:35;;;;;;;;;4.00;3.00;;;;;9.34;76.26;101191.19;5062589;28;45385;-76
2022/02/15 11:16:09;;;;;;;;;2.33;2.33;;;;;9.39;75.58;101194.22;5080785;28;45213;-77
2022/02/15 11:18:35;;;;;;;;;5.00;2.67;;;;;9.30;74.87;101172.09;5092373;27;46280;-78
2022/02/15 11:21:04;;;;;;;;;6.00;2.67;;;;;9.36;75.10;101181.25;5101009;27;45785;-77
2022/02/15 11:23:36;;;;;;;;;6.33;5.00;;;;;9.44;74.95;101189.28;5101182;27;45310;-77
2022/02/15 11:26:14;;;;;;;;;4.00;2.67;;;;;9.44;73.94;101183.97;5082401;27;47546;-78
2022/02/15 11:28:46;;;;;;;;;2.67;2.67;;;;;9.47;74.64;101173.06;5082521;27;48452;-78
2022/02/15 11:31:22;;;;;;;;;3.00;3.00;;;;;9.54;74.40;101167.09;5082502;27;45725;-76
2022/02/15 11:33:52;;;;;;;;;4.00;4.00;;;;;9.63;73.19;101181.25;5100880;27;45239;-76